Cleveland, TN (RZR)

CessnaPC

Wings of Eagles Aviation RZR is located at the beautiful Cleveland Regional Jetport in Cleveland, TN. Opened in January 2013, the completely new airport and FBO, managed by Contour Aviation is by far one of the most beautiful airports in the nation. Wings of Eagles Aviation began operations at RZR in 2017 and continues the tradition of excellence in service provided by Wings of Eagles.

Address:
251 Dry Valley Road, NE
Cleveland, TN 37312

Phone: (423) 472-4343

Business Hours:
Monday-Sunday 7a-6p
Available 24 hrs a day by appointment.

Wings RZR

NOAA Weather

Cleveland, TN

Last Updated on Dec 17 2017, 8:55 pm EST

Current Conditions: Fog/Mist

NOAA Icon

Temp: 43°F

Wind: North at 0mph

Humidity: 100%

Dewpoint: 42.8°F

Your 5-Day Forecast at a Glance

Available data for KRZR from the past 2 hours
CLEVELAND REG., TN
Metar
KRZR 180235Z AUTO 00000KT 3/4SM BR OVC003 06/06 A3018 RMK A01

02:35 UTC

Wind: 0° 0kt

Visibility: 0.75 SM

Sky: OVC 300 ft

Temp: 6 deg C / 42.8 deg F

Dewpoint: 6 deg C / 42.8 deg F

Pressure: 30.18 inHg

Pireps (3)
TYS UA /OV TYS270008/TM 0240/FL050/TP CRJ9/SK TOPS OVC040
ARP UAL2072 3636N 08510W 0139 F350 258/111 TB LGT SK ON TOP IC NONE RM B739 OV SWAPP
ARP UAL2072 3636N 08510W 0139 F330 263/109 TB SMTH SK ON TOP IC NONE RM B739 OV SWAPP